sensor_id;sensor_type;location;lat;lon;timestamp;P1;durP1;ratioP1;P2;durP2;ratioP2
3625;SDS011;1827;50.534;8.316;2022-10-19T00:03:31;181.47;;;11.80;;
3625;SDS011;1827;50.534;8.316;2022-10-19T00:05:58;251.20;;;12.90;;
3625;SDS011;1827;50.534;8.316;2022-10-19T00:08:23;146.70;;;10.33;;
3625;SDS011;1827;50.534;8.316;2022-10-19T00:10:49;40.60;;;8.37;;
3625;SDS011;1827;50.534;8.316;2022-10-19T00:13:15;25.10;;;9.17;;
3625;SDS011;1827;50.534;8.316;2022-10-19T00:15:41;139.43;;;9.63;;
3625;SDS011;1827;50.534;8.316;2022-10-19T00:18:07;102.93;;;9.43;;
3625;SDS011;1827;50.534;8.316;2022-10-19T00:20:33;128.20;;;10.30;;
3625;SDS011;1827;50.534;8.316;2022-10-19T00:23:00;23.33;;;8.60;;
3625;SDS011;1827;50.534;8.316;2022-10-19T00:25:26;128.43;;;10.07;;
3625;SDS011;1827;50.534;8.316;2022-10-19T00:27:52;47.83;;;9.10;;
3625;SDS011;1827;50.534;8.316;2022-10-19T00:30:18;106.47;;;9.87;;
3625;SDS011;1827;50.534;8.316;2022-10-19T00:32:44;24.30;;;9.17;;
3625;SDS011;1827;50.534;8.316;2022-10-19T00:35:09;24.10;;;9.17;;
3625;SDS011;1827;50.534;8.316;2022-10-19T00:37:35;23.60;;;9.50;;
3625;SDS011;1827;50.534;8.316;2022-10-19T00:40:01;131.60;;;11.07;;
3625;SDS011;1827;50.534;8.316;2022-10-19T00:42:27;250.83;;;13.27;;
3625;SDS011;1827;50.534;8.316;2022-10-19T00:44:57;115.93;;;11.53;;
3625;SDS011;1827;50.534;8.316;2022-10-19T00:47:25;51.93;;;9.87;;
3625;SDS011;1827;50.534;8.316;2022-10-19T00:49:51;30.30;;;9.33;;
3625;SDS011;1827;50.534;8.316;2022-10-19T00:52:18;24.90;;;9.33;;
3625;SDS011;1827;50.534;8.316;2022-10-19T00:54:46;28.17;;;10.00;;
3625;SDS011;1827;50.534;8.316;2022-10-19T00:57:13;72.73;;;10.00;;
3625;SDS011;1827;50.534;8.316;2022-10-19T00:59:40;268.77;;;13.63;;
3625;SDS011;1827;50.534;8.316;2022-10-19T01:02:08;175.93;;;12.33;;
3625;SDS011;1827;50.534;8.316;2022-10-19T01:04:35;131.03;;;11.70;;
3625;SDS011;1827;50.534;8.316;2022-10-19T01:07:04;29.13;;;9.90;;
3625;SDS011;1827;50.534;8.316;2022-10-19T01:09:32;29.43;;;10.50;;
3625;SDS011;1827;50.534;8.316;2022-10-19T01:15:05;128.63;;;12.40;;
3625;SDS011;1827;50.534;8.316;2022-10-19T01:17:54;140.77;;;14.70;;
3625;SDS011;1827;50.534;8.316;2022-10-19T01:20:58;193.57;;;16.20;;
3625;SDS011;1827;50.534;8.316;2022-10-19T01:31:20;85.20;;;15.97;;
3625;SDS011;1827;50.534;8.316;2022-10-19T01:34:14;103.10;;;18.77;;
3625;SDS011;1827;50.534;8.316;2022-10-19T01:36:59;45.63;;;16.17;;
3625;SDS011;1827;50.534;8.316;2022-10-19T01:39:42;77.50;;;17.33;;
3625;SDS011;1827;50.534;8.316;2022-10-19T01:42:30;46.17;;;16.50;;
3625;SDS011;1827;50.534;8.316;2022-10-19T01:45:02;45.80;;;16.43;;
3625;SDS011;1827;50.534;8.316;2022-10-19T01:47:40;60.07;;;15.67;;
3625;SDS011;1827;50.534;8.316;2022-10-19T01:50:30;85.57;;;15.63;;
3625;SDS011;1827;50.534;8.316;2022-10-19T01:53:18;62.43;;;16.50;;
3625;SDS011;1827;50.534;8.316;2022-10-19T01:55:46;45.00;;;16.90;;
3625;SDS011;1827;50.534;8.316;2022-10-19T01:58:17;68.37;;;15.00;;
3625;SDS011;1827;50.534;8.316;2022-10-19T02:00:47;100.83;;;15.43;;
3625;SDS011;1827;50.534;8.316;2022-10-19T02:03:16;122.63;;;15.17;;
3625;SDS011;1827;50.534;8.316;2022-10-19T02:05:43;52.40;;;14.00;;
3625;SDS011;1827;50.534;8.316;2022-10-19T02:08:12;78.43;;;15.07;;
3625;SDS011;1827;50.534;8.316;2022-10-19T02:10:42;78.30;;;14.20;;
3625;SDS011;1827;50.534;8.316;2022-10-19T02:13:10;35.37;;;14.17;;
3625;SDS011;1827;50.534;8.316;2022-10-19T02:15:39;52.10;;;14.90;;
3625;SDS011;1827;50.534;8.316;2022-10-19T02:18:08;33.93;;;12.87;;
3625;SDS011;1827;50.534;8.316;2022-10-19T02:20:36;103.90;;;14.67;;
3625;SDS011;1827;50.534;8.316;2022-10-19T02:23:03;72.30;;;13.67;;
3625;SDS011;1827;50.534;8.316;2022-10-19T02:25:30;54.83;;;13.07;;
3625;SDS011;1827;50.534;8.316;2022-10-19T02:27:56;98.83;;;14.10;;
3625;SDS011;1827;50.534;8.316;2022-10-19T02:30:24;150.17;;;14.00;;
3625;SDS011;1827;50.534;8.316;2022-10-19T02:32:49;118.00;;;15.87;;
3625;SDS011;1827;50.534;8.316;2022-10-19T02:35:15;106.63;;;16.07;;
3625;SDS011;1827;50.534;8.316;2022-10-19T02:37:41;39.27;;;15.23;;
3625;SDS011;1827;50.534;8.316;2022-10-19T02:40:07;61.77;;;15.80;;
3625;SDS011;1827;50.534;8.316;2022-10-19T02:42:38;137.37;;;17.67;;
3625;SDS011;1827;50.534;8.316;2022-10-19T02:45:12;50.10;;;15.00;;
3625;SDS011;1827;50.534;8.316;2022-10-19T02:47:53;98.37;;;16.57;;
3625;SDS011;1827;50.534;8.316;2022-10-19T02:50:21;34.77;;;13.63;;
3625;SDS011;1827;50.534;8.316;2022-10-19T02:52:48;75.50;;;14.43;;
3625;SDS011;1827;50.534;8.316;2022-10-19T02:55:13;157.27;;;14.90;;
3625;SDS011;1827;50.534;8.316;2022-10-19T02:57:39;87.40;;;12.40;;
3625;SDS011;1827;50.534;8.316;2022-10-19T03:00:05;37.43;;;12.07;;
3625;SDS011;1827;50.534;8.316;2022-10-19T03:02:32;31.70;;;10.90;;
3625;SDS011;1827;50.534;8.316;2022-10-19T03:04:58;179.63;;;14.00;;
3625;SDS011;1827;50.534;8.316;2022-10-19T03:07:24;103.43;;;12.50;;
3625;SDS011;1827;50.534;8.316;2022-10-19T03:09:50;333.47;;;17.77;;
3625;SDS011;1827;50.534;8.316;2022-10-19T03:12:16;234.60;;;17.70;;
3625;SDS011;1827;50.534;8.316;2022-10-19T03:14:42;71.10;;;12.53;;
3625;SDS011;1827;50.534;8.316;2022-10-19T03:17:08;138.17;;;14.50;;
3625;SDS011;1827;50.534;8.316;2022-10-19T03:19:34;79.90;;;12.23;;
3625;SDS011;1827;50.534;8.316;2022-10-19T03:22:00;41.90;;;12.07;;
3625;SDS011;1827;50.534;8.316;2022-10-19T03:24:28;35.80;;;14.37;;
3625;SDS011;1827;50.534;8.316;2022-10-19T03:26:54;109.03;;;16.57;;
3625;SDS011;1827;50.534;8.316;2022-10-19T03:29:20;91.57;;;14.87;;
3625;SDS011;1827;50.534;8.316;2022-10-19T03:31:45;90.83;;;14.60;;
3625;SDS011;1827;50.534;8.316;2022-10-19T03:34:11;116.10;;;16.53;;
3625;SDS011;1827;50.534;8.316;2022-10-19T03:36:37;186.30;;;14.67;;
3625;SDS011;1827;50.534;8.316;2022-10-19T03:39:05;35.90;;;13.97;;
3625;SDS011;1827;50.534;8.316;2022-10-19T03:41:35;35.57;;;13.93;;
3625;SDS011;1827;50.534;8.316;2022-10-19T03:44:01;37.87;;;14.40;;
3625;SDS011;1827;50.534;8.316;2022-10-19T03:46:27;162.43;;;14.33;;
3625;SDS011;1827;50.534;8.316;2022-10-19T03:48:53;43.03;;;13.37;;
3625;SDS011;1827;50.534;8.316;2022-10-19T03:51:20;54.93;;;11.73;;
3625;SDS011;1827;50.534;8.316;2022-10-19T03:53:52;147.43;;;14.43;;
3625;SDS011;1827;50.534;8.316;2022-10-19T03:56:20;111.03;;;12.13;;
3625;SDS011;1827;50.534;8.316;2022-10-19T03:58:48;68.60;;;11.70;;
3625;SDS011;1827;50.534;8.316;2022-10-19T04:01:16;62.77;;;11.80;;
3625;SDS011;1827;50.534;8.316;2022-10-19T04:03:44;286.43;;;14.47;;
3625;SDS011;1827;50.534;8.316;2022-10-19T04:06:12;29.00;;;11.30;;
3625;SDS011;1827;50.534;8.316;2022-10-19T04:08:39;38.43;;;11.93;;
3625;SDS011;1827;50.534;8.316;2022-10-19T04:11:06;79.40;;;12.47;;
3625;SDS011;1827;50.534;8.316;2022-10-19T04:13:36;37.93;;;12.50;;
3625;SDS011;1827;50.534;8.316;2022-10-19T04:16:02;57.80;;;12.57;;
3625;SDS011;1827;50.534;8.316;2022-10-19T04:18:28;53.30;;;13.50;;
3625;SDS011;1827;50.534;8.316;2022-10-19T04:20:57;62.77;;;13.13;;
3625;SDS011;1827;50.534;8.316;2022-10-19T04:23:25;60.07;;;13.70;;
3625;SDS011;1827;50.534;8.316;2022-10-19T04:25:58;51.87;;;13.97;;
3625;SDS011;1827;50.534;8.316;2022-10-19T04:28:25;60.97;;;13.77;;
3625;SDS011;1827;50.534;8.316;2022-10-19T04:30:51;135.13;;;15.17;;
3625;SDS011;1827;50.534;8.316;2022-10-19T04:33:17;147.30;;;15.20;;
3625;SDS011;1827;50.534;8.316;2022-10-19T04:35:42;189.50;;;13.80;;
3625;SDS011;1827;50.534;8.316;2022-10-19T04:38:08;33.03;;;11.93;;
3625;SDS011;1827;50.534;8.316;2022-10-19T04:40:34;28.97;;;12.20;;
3625;SDS011;1827;50.534;8.316;2022-10-19T04:43:01;104.30;;;13.97;;
3625;SDS011;1827;50.534;8.316;2022-10-19T04:45:27;151.87;;;16.20;;
3625;SDS011;1827;50.534;8.316;2022-10-19T04:47:53;126.83;;;15.20;;
3625;SDS011;1827;50.534;8.316;2022-10-19T04:50:22;90.43;;;14.40;;
3625;SDS011;1827;50.534;8.316;2022-10-19T04:52:53;57.17;;;14.67;;
3625;SDS011;1827;50.534;8.316;2022-10-19T04:55:19;81.33;;;15.77;;
3625;SDS011;1827;50.534;8.316;2022-10-19T04:57:45;74.60;;;14.70;;
3625;SDS011;1827;50.534;8.316;2022-10-19T05:00:11;65.40;;;13.07;;
3625;SDS011;1827;50.534;8.316;2022-10-19T05:02:41;72.83;;;13.90;;
3625;SDS011;1827;50.534;8.316;2022-10-19T05:05:13;63.47;;;13.60;;
3625;SDS011;1827;50.534;8.316;2022-10-19T05:07:39;49.57;;;13.90;;
3625;SDS011;1827;50.534;8.316;2022-10-19T05:10:05;49.97;;;12.50;;
3625;SDS011;1827;50.534;8.316;2022-10-19T05:12:33;35.90;;;12.60;;
3625;SDS011;1827;50.534;8.316;2022-10-19T05:15:00;31.63;;;12.10;;
3625;SDS011;1827;50.534;8.316;2022-10-19T05:17:28;34.40;;;11.87;;
3625;SDS011;1827;50.534;8.316;2022-10-19T05:19:55;80.70;;;13.67;;
3625;SDS011;1827;50.534;8.316;2022-10-19T05:22:21;82.70;;;12.83;;
3625;SDS011;1827;50.534;8.316;2022-10-19T05:24:47;93.27;;;13.60;;
3625;SDS011;1827;50.534;8.316;2022-10-19T05:27:13;87.00;;;13.73;;
3625;SDS011;1827;50.534;8.316;2022-10-19T05:29:39;66.47;;;13.70;;
3625;SDS011;1827;50.534;8.316;2022-10-19T05:32:04;47.70;;;14.73;;
3625;SDS011;1827;50.534;8.316;2022-10-19T05:34:30;52.33;;;13.07;;
3625;SDS011;1827;50.534;8.316;2022-10-19T05:36:56;62.90;;;13.97;;
3625;SDS011;1827;50.534;8.316;2022-10-19T05:39:22;46.53;;;12.80;;
3625;SDS011;1827;50.534;8.316;2022-10-19T05:41:48;66.43;;;13.60;;
3625;SDS011;1827;50.534;8.316;2022-10-19T05:44:15;42.13;;;12.50;;
3625;SDS011;1827;50.534;8.316;2022-10-19T05:46:43;50.93;;;12.97;;
3625;SDS011;1827;50.534;8.316;2022-10-19T05:49:10;44.03;;;13.30;;
3625;SDS011;1827;50.534;8.316;2022-10-19T05:51:37;43.83;;;13.90;;
3625;SDS011;1827;50.534;8.316;2022-10-19T05:54:03;43.97;;;14.77;;
3625;SDS011;1827;50.534;8.316;2022-10-19T05:56:30;54.80;;;15.73;;
3625;SDS011;1827;50.534;8.316;2022-10-19T05:58:57;40.97;;;15.43;;
3625;SDS011;1827;50.534;8.316;2022-10-19T06:01:25;51.30;;;15.20;;
3625;SDS011;1827;50.534;8.316;2022-10-19T06:03:53;44.37;;;14.30;;
3625;SDS011;1827;50.534;8.316;2022-10-19T06:06:20;44.00;;;14.47;;
3625;SDS011;1827;50.534;8.316;2022-10-19T06:08:46;155.67;;;15.50;;
3625;SDS011;1827;50.534;8.316;2022-10-19T06:11:14;120.40;;;14.90;;
3625;SDS011;1827;50.534;8.316;2022-10-19T06:13:44;76.27;;;13.80;;
3625;SDS011;1827;50.534;8.316;2022-10-19T06:16:13;70.20;;;13.60;;
3625;SDS011;1827;50.534;8.316;2022-10-19T06:18:40;74.33;;;14.17;;
3625;SDS011;1827;50.534;8.316;2022-10-19T06:21:09;64.17;;;14.97;;
3625;SDS011;1827;50.534;8.316;2022-10-19T06:23:40;90.00;;;14.27;;
3625;SDS011;1827;50.534;8.316;2022-10-19T06:26:07;69.33;;;14.43;;
3625;SDS011;1827;50.534;8.316;2022-10-19T06:28:35;68.00;;;13.90;;
3625;SDS011;1827;50.534;8.316;2022-10-19T06:31:02;74.47;;;14.93;;
3625;SDS011;1827;50.534;8.316;2022-10-19T06:33:28;70.23;;;14.30;;
3625;SDS011;1827;50.534;8.316;2022-10-19T06:35:55;106.90;;;14.63;;
3625;SDS011;1827;50.534;8.316;2022-10-19T06:38:28;85.83;;;15.37;;
3625;SDS011;1827;50.534;8.316;2022-10-19T06:40:57;67.10;;;15.10;;
3625;SDS011;1827;50.534;8.316;2022-10-19T06:43:23;49.90;;;14.37;;
3625;SDS011;1827;50.534;8.316;2022-10-19T06:45:49;65.53;;;15.87;;
3625;SDS011;1827;50.534;8.316;2022-10-19T06:48:15;61.37;;;14.47;;
3625;SDS011;1827;50.534;8.316;2022-10-19T06:50:41;76.47;;;15.37;;
3625;SDS011;1827;50.534;8.316;2022-10-19T06:53:06;60.77;;;16.10;;
3625;SDS011;1827;50.534;8.316;2022-10-19T06:55:32;118.20;;;18.00;;
3625;SDS011;1827;50.534;8.316;2022-10-19T06:57:58;56.50;;;18.70;;
3625;SDS011;1827;50.534;8.316;2022-10-19T07:00:26;64.07;;;18.97;;
3625;SDS011;1827;50.534;8.316;2022-10-19T07:02:53;50.80;;;19.53;;
3625;SDS011;1827;50.534;8.316;2022-10-19T07:05:19;61.97;;;20.13;;
3625;SDS011;1827;50.534;8.316;2022-10-19T07:07:44;56.40;;;20.27;;
3625;SDS011;1827;50.534;8.316;2022-10-19T07:10:11;60.27;;;20.03;;
3625;SDS011;1827;50.534;8.316;2022-10-19T07:12:37;40.50;;;16.20;;
3625;SDS011;1827;50.534;8.316;2022-10-19T07:15:03;40.97;;;15.60;;
3625;SDS011;1827;50.534;8.316;2022-10-19T07:17:28;44.93;;;14.80;;
3625;SDS011;1827;50.534;8.316;2022-10-19T07:19:54;40.50;;;15.10;;
3625;SDS011;1827;50.534;8.316;2022-10-19T07:22:20;42.00;;;15.43;;
3625;SDS011;1827;50.534;8.316;2022-10-19T07:24:46;39.43;;;13.97;;
3625;SDS011;1827;50.534;8.316;2022-10-19T07:27:11;34.50;;;13.30;;
3625;SDS011;1827;50.534;8.316;2022-10-19T07:29:37;35.60;;;14.30;;
3625;SDS011;1827;50.534;8.316;2022-10-19T07:32:03;39.20;;;13.60;;
3625;SDS011;1827;50.534;8.316;2022-10-19T07:34:29;35.80;;;14.53;;
3625;SDS011;1827;50.534;8.316;2022-10-19T07:36:55;35.70;;;13.43;;
3625;SDS011;1827;50.534;8.316;2022-10-19T07:39:21;34.20;;;13.43;;
3625;SDS011;1827;50.534;8.316;2022-10-19T07:41:47;31.33;;;12.70;;
3625;SDS011;1827;50.534;8.316;2022-10-19T07:44:13;29.13;;;12.40;;
3625;SDS011;1827;50.534;8.316;2022-10-19T07:46:39;32.13;;;11.50;;
3625;SDS011;1827;50.534;8.316;2022-10-19T07:49:09;28.93;;;10.53;;
3625;SDS011;1827;50.534;8.316;2022-10-19T07:51:38;26.70;;;10.70;;
3625;SDS011;1827;50.534;8.316;2022-10-19T07:54:04;36.67;;;10.17;;
3625;SDS011;1827;50.534;8.316;2022-10-19T07:56:31;28.70;;;9.40;;
3625;SDS011;1827;50.534;8.316;2022-10-19T07:58:57;26.77;;;9.70;;
3625;SDS011;1827;50.534;8.316;2022-10-19T08:01:31;25.53;;;9.53;;
3625;SDS011;1827;50.534;8.316;2022-10-19T08:03:58;30.43;;;10.87;;
3625;SDS011;1827;50.534;8.316;2022-10-19T08:06:25;33.20;;;12.30;;
3625;SDS011;1827;50.534;8.316;2022-10-19T08:08:52;31.30;;;9.80;;
3625;SDS011;1827;50.534;8.316;2022-10-19T08:11:19;26.60;;;9.03;;
3625;SDS011;1827;50.534;8.316;2022-10-19T08:13:45;25.50;;;8.70;;
3625;SDS011;1827;50.534;8.316;2022-10-19T08:16:22;22.30;;;7.40;;
3625;SDS011;1827;50.534;8.316;2022-10-19T08:18:50;28.53;;;7.90;;
3625;SDS011;1827;50.534;8.316;2022-10-19T08:21:17;23.57;;;7.73;;
3625;SDS011;1827;50.534;8.316;2022-10-19T08:23:43;25.60;;;8.40;;
3625;SDS011;1827;50.534;8.316;2022-10-19T08:26:08;32.07;;;8.30;;
3625;SDS011;1827;50.534;8.316;2022-10-19T08:28:34;26.70;;;8.23;;
3625;SDS011;1827;50.534;8.316;2022-10-19T08:31:07;21.50;;;7.13;;
3625;SDS011;1827;50.534;8.316;2022-10-19T08:33:44;29.23;;;8.10;;
3625;SDS011;1827;50.534;8.316;2022-10-19T08:36:11;26.73;;;6.97;;
3625;SDS011;1827;50.534;8.316;2022-10-19T08:38:38;22.53;;;7.40;;
3625;SDS011;1827;50.534;8.316;2022-10-19T08:41:07;30.87;;;7.63;;
3625;SDS011;1827;50.534;8.316;2022-10-19T08:43:37;26.63;;;8.63;;
3625;SDS011;1827;50.534;8.316;2022-10-19T08:49:00;23.30;;;7.77;;
3625;SDS011;1827;50.534;8.316;2022-10-19T08:51:28;27.93;;;7.90;;
3625;SDS011;1827;50.534;8.316;2022-10-19T08:53:58;22.90;;;6.63;;
3625;SDS011;1827;50.534;8.316;2022-10-19T08:56:30;32.97;;;8.20;;
3625;SDS011;1827;50.534;8.316;2022-10-19T09:02:13;25.33;;;7.60;;
3625;SDS011;1827;50.534;8.316;2022-10-19T09:04:41;24.00;;;6.77;;
3625;SDS011;1827;50.534;8.316;2022-10-19T09:07:23;24.53;;;7.20;;
3625;SDS011;1827;50.534;8.316;2022-10-19T09:12:31;24.20;;;7.17;;
3625;SDS011;1827;50.534;8.316;2022-10-19T09:15:19;23.57;;;7.37;;
3625;SDS011;1827;50.534;8.316;2022-10-19T09:17:50;24.07;;;7.67;;
3625;SDS011;1827;50.534;8.316;2022-10-19T09:20:24;28.03;;;6.97;;
3625;SDS011;1827;50.534;8.316;2022-10-19T09:23:03;21.90;;;6.60;;
3625;SDS011;1827;50.534;8.316;2022-10-19T09:25:38;25.20;;;6.17;;
3625;SDS011;1827;50.534;8.316;2022-10-19T09:30:53;44.93;;;9.00;;
3625;SDS011;1827;50.534;8.316;2022-10-19T09:33:23;24.17;;;7.60;;
3625;SDS011;1827;50.534;8.316;2022-10-19T09:35:54;24.50;;;6.20;;
3625;SDS011;1827;50.534;8.316;2022-10-19T09:38:23;27.93;;;5.70;;
3625;SDS011;1827;50.534;8.316;2022-10-19T09:40:51;26.73;;;5.60;;
3625;SDS011;1827;50.534;8.316;2022-10-19T09:43:17;19.50;;;5.20;;
3625;SDS011;1827;50.534;8.316;2022-10-19T09:48:25;24.00;;;5.80;;
3625;SDS011;1827;50.534;8.316;2022-10-19T09:50:59;20.80;;;5.17;;
3625;SDS011;1827;50.534;8.316;2022-10-19T09:53:26;28.70;;;5.43;;
3625;SDS011;1827;50.534;8.316;2022-10-19T09:55:57;28.00;;;5.40;;
3625;SDS011;1827;50.534;8.316;2022-10-19T09:58:27;23.50;;;5.33;;
3625;SDS011;1827;50.534;8.316;2022-10-19T10:00:54;22.03;;;4.83;;
3625;SDS011;1827;50.534;8.316;2022-10-19T10:05:55;26.30;;;5.67;;
3625;SDS011;1827;50.534;8.316;2022-10-19T10:08:25;20.57;;;5.17;;
3625;SDS011;1827;50.534;8.316;2022-10-19T10:10:52;21.10;;;5.40;;
3625;SDS011;1827;50.534;8.316;2022-10-19T10:13:33;26.33;;;5.90;;
3625;SDS011;1827;50.534;8.316;2022-10-19T10:16:02;26.93;;;5.90;;
3625;SDS011;1827;50.534;8.316;2022-10-19T10:18:31;23.70;;;6.40;;
3625;SDS011;1827;50.534;8.316;2022-10-19T10:21:14;22.87;;;5.80;;
3625;SDS011;1827;50.534;8.316;2022-10-19T10:23:57;23.93;;;6.80;;
3625;SDS011;1827;50.534;8.316;2022-10-19T10:26:57;22.57;;;6.10;;
3625;SDS011;1827;50.534;8.316;2022-10-19T10:32:19;24.10;;;7.30;;
3625;SDS011;1827;50.534;8.316;2022-10-19T10:34:47;37.80;;;6.80;;
3625;SDS011;1827;50.534;8.316;2022-10-19T10:37:20;23.83;;;6.43;;
3625;SDS011;1827;50.534;8.316;2022-10-19T10:39:58;28.00;;;7.10;;
3625;SDS011;1827;50.534;8.316;2022-10-19T10:42:29;28.80;;;7.30;;
3625;SDS011;1827;50.534;8.316;2022-10-19T10:45:00;24.60;;;6.70;;
3625;SDS011;1827;50.534;8.316;2022-10-19T10:47:26;33.83;;;7.20;;
3625;SDS011;1827;50.534;8.316;2022-10-19T10:49:53;21.03;;;6.87;;
3625;SDS011;1827;50.534;8.316;2022-10-19T10:52:54;26.73;;;7.30;;
3625;SDS011;1827;50.534;8.316;2022-10-19T10:55:25;25.93;;;5.80;;
3625;SDS011;1827;50.534;8.316;2022-10-19T10:57:51;27.53;;;6.77;;
3625;SDS011;1827;50.534;8.316;2022-10-19T11:00:30;27.13;;;6.87;;
3625;SDS011;1827;50.534;8.316;2022-10-19T11:05:35;25.67;;;5.90;;
3625;SDS011;1827;50.534;8.316;2022-10-19T11:08:26;21.10;;;5.40;;
3625;SDS011;1827;50.534;8.316;2022-10-19T11:11:00;26.63;;;5.80;;
3625;SDS011;1827;50.534;8.316;2022-10-19T11:13:40;23.70;;;6.37;;
3625;SDS011;1827;50.534;8.316;2022-10-19T11:16:17;20.40;;;5.67;;
3625;SDS011;1827;50.534;8.316;2022-10-19T11:26:43;27.90;;;5.30;;
3625;SDS011;1827;50.534;8.316;2022-10-19T11:29:19;23.40;;;4.90;;
3625;SDS011;1827;50.534;8.316;2022-10-19T11:31:54;34.87;;;5.97;;
3625;SDS011;1827;50.534;8.316;2022-10-19T11:51:28;25.60;;;4.70;;
3625;SDS011;1827;50.534;8.316;2022-10-19T11:54:04;22.63;;;4.73;;
3625;SDS011;1827;50.534;8.316;2022-10-19T11:56:47;24.13;;;5.90;;
3625;SDS011;1827;50.534;8.316;2022-10-19T11:59:22;19.73;;;4.67;;
3625;SDS011;1827;50.534;8.316;2022-10-19T12:07:31;24.70;;;4.93;;
3625;SDS011;1827;50.534;8.316;2022-10-19T12:10:24;23.70;;;5.10;;
3625;SDS011;1827;50.534;8.316;2022-10-19T12:13:01;23.30;;;5.60;;
3625;SDS011;1827;50.534;8.316;2022-10-19T12:15:31;29.70;;;5.47;;
3625;SDS011;1827;50.534;8.316;2022-10-19T12:20:43;23.00;;;5.33;;
3625;SDS011;1827;50.534;8.316;2022-10-19T12:23:30;23.03;;;4.97;;
3625;SDS011;1827;50.534;8.316;2022-10-19T12:25:59;31.43;;;5.80;;
3625;SDS011;1827;50.534;8.316;2022-10-19T12:28:31;24.47;;;5.20;;
3625;SDS011;1827;50.534;8.316;2022-10-19T12:30:59;30.27;;;5.77;;
3625;SDS011;1827;50.534;8.316;2022-10-19T12:33:32;23.33;;;5.80;;
3625;SDS011;1827;50.534;8.316;2022-10-19T12:36:25;21.80;;;5.13;;
3625;SDS011;1827;50.534;8.316;2022-10-19T12:44:19;25.83;;;5.03;;
3625;SDS011;1827;50.534;8.316;2022-10-19T12:46:57;29.47;;;5.60;;
3625;SDS011;1827;50.534;8.316;2022-10-19T12:52:01;26.30;;;5.33;;
3625;SDS011;1827;50.534;8.316;2022-10-19T12:54:29;23.87;;;5.47;;
3625;SDS011;1827;50.534;8.316;2022-10-19T12:56:57;22.00;;;5.27;;
3625;SDS011;1827;50.534;8.316;2022-10-19T12:59:27;20.50;;;5.40;;
3625;SDS011;1827;50.534;8.316;2022-10-19T13:01:55;24.70;;;5.43;;
3625;SDS011;1827;50.534;8.316;2022-10-19T13:04:23;26.30;;;5.63;;
3625;SDS011;1827;50.534;8.316;2022-10-19T13:07:02;23.97;;;5.90;;
3625;SDS011;1827;50.534;8.316;2022-10-19T13:14:46;22.77;;;4.50;;
3625;SDS011;1827;50.534;8.316;2022-10-19T13:22:42;29.10;;;4.67;;
3625;SDS011;1827;50.534;8.316;2022-10-19T13:27:48;32.10;;;4.60;;
3625;SDS011;1827;50.534;8.316;2022-10-19T13:41:04;20.17;;;3.93;;
3625;SDS011;1827;50.534;8.316;2022-10-19T14:13:30;24.03;;;5.37;;
3625;SDS011;1827;50.534;8.316;2022-10-19T14:15:57;22.77;;;3.80;;
3625;SDS011;1827;50.534;8.316;2022-10-19T14:18:29;24.63;;;3.50;;
3625;SDS011;1827;50.534;8.316;2022-10-19T14:21:02;24.30;;;3.93;;
3625;SDS011;1827;50.534;8.316;2022-10-19T14:23:30;19.77;;;3.80;;
3625;SDS011;1827;50.534;8.316;2022-10-19T14:25:59;25.30;;;4.00;;
3625;SDS011;1827;50.534;8.316;2022-10-19T14:28:25;19.27;;;3.43;;
3625;SDS011;1827;50.534;8.316;2022-10-19T14:33:29;24.80;;;3.60;;
3625;SDS011;1827;50.534;8.316;2022-10-19T14:36:00;18.97;;;3.40;;
3625;SDS011;1827;50.534;8.316;2022-10-19T14:38:28;21.00;;;3.87;;
3625;SDS011;1827;50.534;8.316;2022-10-19T14:41:01;22.67;;;3.50;;
3625;SDS011;1827;50.534;8.316;2022-10-19T14:43:31;22.00;;;4.07;;
3625;SDS011;1827;50.534;8.316;2022-10-19T14:46:17;23.00;;;3.40;;
3625;SDS011;1827;50.534;8.316;2022-10-19T14:48:44;29.87;;;3.93;;
3625;SDS011;1827;50.534;8.316;2022-10-19T14:54:04;21.53;;;3.80;;
3625;SDS011;1827;50.534;8.316;2022-10-19T14:56:41;18.67;;;3.80;;
3625;SDS011;1827;50.534;8.316;2022-10-19T14:59:26;24.50;;;3.80;;
3625;SDS011;1827;50.534;8.316;2022-10-19T15:02:16;17.70;;;3.40;;
3625;SDS011;1827;50.534;8.316;2022-10-19T15:04:52;17.77;;;2.97;;
3625;SDS011;1827;50.534;8.316;2022-10-19T15:07:33;21.23;;;3.27;;
3625;SDS011;1827;50.534;8.316;2022-10-19T15:10:05;27.33;;;3.67;;
3625;SDS011;1827;50.534;8.316;2022-10-19T15:12:40;26.77;;;3.20;;
3625;SDS011;1827;50.534;8.316;2022-10-19T15:15:08;22.53;;;3.73;;
3625;SDS011;1827;50.534;8.316;2022-10-19T15:17:51;23.37;;;2.67;;
3625;SDS011;1827;50.534;8.316;2022-10-19T15:20:27;23.10;;;3.40;;
3625;SDS011;1827;50.534;8.316;2022-10-19T15:22:55;18.93;;;4.47;;
3625;SDS011;1827;50.534;8.316;2022-10-19T15:25:26;22.50;;;3.37;;
3625;SDS011;1827;50.534;8.316;2022-10-19T15:27:56;22.53;;;3.13;;
3625;SDS011;1827;50.534;8.316;2022-10-19T15:30:23;18.63;;;3.10;;
3625;SDS011;1827;50.534;8.316;2022-10-19T15:32:56;20.00;;;2.60;;
3625;SDS011;1827;50.534;8.316;2022-10-19T15:35:35;20.73;;;3.30;;
3625;SDS011;1827;50.534;8.316;2022-10-19T15:40:39;26.63;;;3.10;;
3625;SDS011;1827;50.534;8.316;2022-10-19T15:48:45;29.23;;;3.53;;
3625;SDS011;1827;50.534;8.316;2022-10-19T15:53:47;19.80;;;3.53;;
3625;SDS011;1827;50.534;8.316;2022-10-19T15:56:25;30.00;;;4.30;;
3625;SDS011;1827;50.534;8.316;2022-10-19T15:58:53;19.57;;;3.50;;
3625;SDS011;1827;50.534;8.316;2022-10-19T16:01:22;30.87;;;3.20;;
3625;SDS011;1827;50.534;8.316;2022-10-19T16:03:50;19.53;;;3.57;;
3625;SDS011;1827;50.534;8.316;2022-10-19T16:06:17;24.23;;;3.80;;
3625;SDS011;1827;50.534;8.316;2022-10-19T16:08:44;22.80;;;4.40;;
3625;SDS011;1827;50.534;8.316;2022-10-19T16:11:14;29.20;;;4.27;;
3625;SDS011;1827;50.534;8.316;2022-10-19T16:13:41;22.00;;;4.00;;
3625;SDS011;1827;50.534;8.316;2022-10-19T16:16:08;26.60;;;4.70;;
3625;SDS011;1827;50.534;8.316;2022-10-19T16:18:38;23.30;;;4.23;;
3625;SDS011;1827;50.534;8.316;2022-10-19T16:21:05;33.50;;;6.43;;
3625;SDS011;1827;50.534;8.316;2022-10-19T16:23:31;25.87;;;7.20;;
3625;SDS011;1827;50.534;8.316;2022-10-19T16:25:59;24.00;;;7.80;;
3625;SDS011;1827;50.534;8.316;2022-10-19T16:28:25;29.07;;;7.80;;
3625;SDS011;1827;50.534;8.316;2022-10-19T16:30:52;29.90;;;9.60;;
3625;SDS011;1827;50.534;8.316;2022-10-19T16:33:18;43.97;;;17.47;;
3625;SDS011;1827;50.534;8.316;2022-10-19T16:35:44;43.53;;;12.50;;
3625;SDS011;1827;50.534;8.316;2022-10-19T16:38:10;27.97;;;7.00;;
3625;SDS011;1827;50.534;8.316;2022-10-19T16:40:36;43.43;;;6.50;;
3625;SDS011;1827;50.534;8.316;2022-10-19T16:43:02;28.10;;;7.50;;
3625;SDS011;1827;50.534;8.316;2022-10-19T16:45:28;29.60;;;6.40;;
3625;SDS011;1827;50.534;8.316;2022-10-19T16:47:54;25.93;;;4.37;;
3625;SDS011;1827;50.534;8.316;2022-10-19T16:50:20;25.10;;;5.60;;
3625;SDS011;1827;50.534;8.316;2022-10-19T16:52:46;39.73;;;6.80;;
3625;SDS011;1827;50.534;8.316;2022-10-19T16:55:12;29.63;;;5.50;;
3625;SDS011;1827;50.534;8.316;2022-10-19T16:57:38;25.33;;;6.23;;
3625;SDS011;1827;50.534;8.316;2022-10-19T17:00:05;24.10;;;6.40;;
3625;SDS011;1827;50.534;8.316;2022-10-19T17:02:33;29.40;;;6.03;;
3625;SDS011;1827;50.534;8.316;2022-10-19T17:04:59;24.93;;;5.67;;
3625;SDS011;1827;50.534;8.316;2022-10-19T17:07:25;34.07;;;6.63;;
3625;SDS011;1827;50.534;8.316;2022-10-19T17:09:50;24.37;;;5.77;;
3625;SDS011;1827;50.534;8.316;2022-10-19T17:12:16;33.40;;;7.10;;
3625;SDS011;1827;50.534;8.316;2022-10-19T17:14:42;29.77;;;6.73;;
3625;SDS011;1827;50.534;8.316;2022-10-19T17:17:08;32.07;;;6.77;;
3625;SDS011;1827;50.534;8.316;2022-10-19T17:19:35;27.07;;;7.10;;
3625;SDS011;1827;50.534;8.316;2022-10-19T17:22:01;26.70;;;7.07;;
3625;SDS011;1827;50.534;8.316;2022-10-19T17:24:29;29.40;;;10.10;;
3625;SDS011;1827;50.534;8.316;2022-10-19T17:26:55;32.10;;;9.30;;
3625;SDS011;1827;50.534;8.316;2022-10-19T17:29:21;32.00;;;8.50;;
3625;SDS011;1827;50.534;8.316;2022-10-19T17:31:47;32.33;;;9.37;;
3625;SDS011;1827;50.534;8.316;2022-10-19T17:34:14;32.73;;;9.50;;